createdAt,value
2017-03-05T00:00:11.643Z,0
2017-03-05T00:01:11.271Z,0
2017-03-05T00:02:10.867Z,0
2017-03-05T00:03:11.682Z,0
2017-03-05T00:04:11.303Z,0
2017-03-05T00:05:11.320Z,0
2017-03-05T00:06:11.374Z,0
2017-03-05T00:07:11.747Z,0
2017-03-05T00:08:11.780Z,0
2017-03-05T00:09:11.802Z,0
2017-03-05T00:10:11.799Z,0
2017-03-05T00:11:11.834Z,0
2017-03-05T00:12:12.122Z,0
2017-03-05T00:13:11.855Z,0
2017-03-05T00:14:11.856Z,0
2017-03-05T00:15:11.525Z,0
2017-03-05T00:16:11.516Z,0
2017-03-05T00:17:11.934Z,0
2017-03-05T00:18:11.547Z,0
2017-03-05T00:19:11.945Z,0
2017-03-05T00:20:11.986Z,0
2017-03-05T00:21:12.003Z,0
2017-03-05T00:22:11.626Z,0
2017-03-05T00:23:12.035Z,0
2017-03-05T00:24:12.058Z,0
2017-03-05T00:25:11.666Z,0
2017-03-05T00:26:11.699Z,0
2017-03-05T00:27:12.107Z,0
2017-03-05T00:28:12.118Z,0
2017-03-05T00:29:12.159Z,0
2017-03-05T00:30:11.833Z,0
2017-03-05T00:31:11.825Z,0
2017-03-05T00:32:12.174Z,0
2017-03-05T00:33:12.203Z,0
2017-03-05T00:34:12.250Z,0
2017-03-05T00:35:12.263Z,0
2017-03-05T00:36:11.894Z,0
2017-03-05T00:37:12.277Z,0
2017-03-05T00:38:12.121Z,0
2017-03-05T00:39:12.514Z,0
2017-03-05T00:40:12.097Z,0
2017-03-05T00:41:12.031Z,0
2017-03-05T00:42:12.132Z,0
2017-03-05T00:43:12.472Z,0
2017-03-05T00:44:12.531Z,0
2017-03-05T00:45:12.426Z,0
2017-03-05T00:46:12.461Z,0
2017-03-05T00:47:12.450Z,0
2017-03-05T00:48:12.088Z,0
2017-03-05T00:49:12.530Z,0
2017-03-05T00:50:13.308Z,0
2017-03-05T00:51:12.121Z,0
2017-03-05T00:52:12.571Z,0
2017-03-05T00:53:12.559Z,0
2017-03-05T00:54:12.204Z,0
2017-03-05T00:55:12.209Z,0
2017-03-05T00:56:12.610Z,0
2017-03-05T00:57:12.639Z,0
2017-03-05T00:58:11.847Z,0
2017-03-05T00:59:11.881Z,0
2017-03-05T01:00:12.286Z,0
2017-03-05T01:01:12.317Z,0
2017-03-05T01:02:11.920Z,0
2017-03-05T01:03:12.352Z,0
2017-03-05T01:04:12.753Z,0
2017-03-05T01:05:12.386Z,0
2017-03-05T01:06:12.395Z,0
2017-03-05T01:07:12.418Z,0
2017-03-05T01:08:12.429Z,0
2017-03-05T01:09:12.852Z,0
2017-03-05T01:10:12.878Z,0
2017-03-05T01:11:12.868Z,0
2017-03-05T01:12:12.997Z,0
2017-03-05T01:13:12.919Z,0
2017-03-05T01:14:12.933Z,0
2017-03-05T01:15:12.938Z,0
2017-03-05T01:16:12.953Z,0
2017-03-05T01:17:13.083Z,0
2017-03-05T01:18:12.630Z,0
2017-03-05T01:19:13.139Z,0
2017-03-05T01:20:13.129Z,0
2017-03-05T01:21:13.170Z,0
2017-03-05T01:22:13.148Z,0
2017-03-05T01:23:12.759Z,0
2017-03-05T01:24:13.164Z,0
2017-03-05T01:25:12.736Z,0
2017-03-05T01:26:13.208Z,0
2017-03-05T01:27:13.207Z,0
2017-03-05T01:28:13.300Z,0
2017-03-05T01:29:12.890Z,0
2017-03-05T01:30:12.891Z,0
2017-03-05T01:31:13.433Z,0
2017-03-05T01:32:13.442Z,0
2017-03-05T01:33:13.441Z,0
2017-03-05T01:34:13.103Z,0
2017-03-05T01:35:13.070Z,0
2017-03-05T01:36:13.080Z,0
2017-03-05T01:37:13.483Z,0
2017-03-05T01:38:13.086Z,0
2017-03-05T01:39:13.091Z,0
2017-03-05T01:40:13.091Z,0
2017-03-05T01:41:13.122Z,0
2017-03-05T01:42:13.527Z,0
2017-03-05T01:43:13.662Z,0
2017-03-05T01:44:13.169Z,0
2017-03-05T01:45:13.174Z,0
2017-03-05T01:46:13.185Z,0
2017-03-05T01:47:13.581Z,0
2017-03-05T01:48:13.589Z,0
2017-03-05T01:49:13.605Z,0
2017-03-05T01:50:12.854Z,0
2017-03-05T01:51:13.279Z,0
2017-03-05T01:52:13.260Z,0
2017-03-05T01:53:13.664Z,0
2017-03-05T01:54:13.713Z,0
2017-03-05T01:55:13.714Z,0
2017-03-05T01:56:13.716Z,0
2017-03-05T01:57:13.704Z,0
2017-03-05T01:58:13.782Z,0
2017-03-05T01:59:13.722Z,0
2017-03-05T02:00:13.743Z,0
2017-03-05T02:01:13.747Z,0
2017-03-05T02:02:13.361Z,0
2017-03-05T02:03:13.770Z,0
2017-03-05T02:04:13.405Z,0
2017-03-05T02:05:13.824Z,0
2017-03-05T02:06:13.874Z,0
2017-03-05T02:07:13.851Z,0
2017-03-05T02:08:13.861Z,0
2017-03-05T02:09:13.913Z,0
2017-03-05T02:10:13.910Z,0
2017-03-05T02:11:13.521Z,0
2017-03-05T02:12:13.956Z,0
2017-03-05T02:13:13.948Z,0
2017-03-05T02:14:13.570Z,0
2017-03-05T02:15:14.097Z,0
2017-03-05T02:16:14.216Z,0
2017-03-05T02:17:14.033Z,0
2017-03-05T02:18:13.625Z,0
2017-03-05T02:19:13.747Z,0
2017-03-05T02:20:13.669Z,0
2017-03-05T02:21:14.088Z,0
2017-03-05T02:22:14.120Z,0
2017-03-05T02:23:14.133Z,0
2017-03-05T02:24:14.137Z,0
2017-03-05T02:25:14.170Z,0
2017-03-05T02:26:13.774Z,0
2017-03-05T02:27:14.207Z,0
2017-03-05T02:28:14.205Z,0
2017-03-05T02:29:14.215Z,0
2017-03-05T02:30:14.251Z,0
2017-03-05T02:31:14.249Z,0
2017-03-05T02:32:13.894Z,0
2017-03-05T02:33:14.291Z,0
2017-03-05T02:34:14.307Z,0
2017-03-05T02:35:14.418Z,0
2017-03-05T02:36:14.362Z,0
2017-03-05T02:37:14.491Z,0
2017-03-05T02:38:14.578Z,0
2017-03-05T02:39:14.392Z,0
2017-03-05T02:40:14.087Z,0
2017-03-05T02:41:14.438Z,0
2017-03-05T02:42:14.443Z,0
2017-03-05T02:43:14.470Z,0
2017-03-05T02:44:14.472Z,0
2017-03-05T02:45:14.503Z,0
2017-03-05T02:46:14.543Z,0
2017-03-05T02:47:14.544Z,0
2017-03-05T02:48:14.151Z,0
2017-03-05T02:49:14.547Z,0
2017-03-05T02:50:14.178Z,0
2017-03-05T02:51:14.583Z,0
2017-03-05T02:52:14.622Z,0
2017-03-05T02:53:14.621Z,0
2017-03-05T02:54:14.333Z,0
2017-03-05T02:55:14.656Z,0
2017-03-05T02:56:14.685Z,0
2017-03-05T02:57:14.682Z,0
2017-03-05T02:58:14.707Z,0
2017-03-05T02:59:14.720Z,0
2017-03-05T03:00:14.758Z,0
2017-03-05T03:01:14.356Z,0
2017-03-05T03:02:14.382Z,0
2017-03-05T03:03:14.944Z,0
2017-03-05T03:04:14.473Z,0
2017-03-05T03:05:14.893Z,0
2017-03-05T03:06:14.453Z,0
2017-03-05T03:07:14.550Z,0
2017-03-05T03:08:14.502Z,0
2017-03-05T03:09:14.908Z,0
2017-03-05T03:10:14.630Z,0
2017-03-05T03:11:15.019Z,0
2017-03-05T03:12:14.580Z,0
2017-03-05T03:13:14.566Z,0
2017-03-05T03:14:14.583Z,0
2017-03-05T03:15:15.016Z,0
2017-03-05T03:16:15.015Z,0
2017-03-05T03:17:15.053Z,0
2017-03-05T03:18:14.838Z,0
2017-03-05T03:19:15.113Z,0
2017-03-05T03:20:14.811Z,0
2017-03-05T03:21:15.112Z,0
2017-03-05T03:22:15.119Z,0
2017-03-05T03:23:15.222Z,0
2017-03-05T03:24:15.154Z,0
2017-03-05T03:25:15.239Z,0
2017-03-05T03:26:15.179Z,0
2017-03-05T03:27:15.256Z,0
2017-03-05T03:28:14.809Z,0
2017-03-05T03:29:15.382Z,0
2017-03-05T03:30:15.249Z,0
2017-03-05T03:31:15.425Z,0
2017-03-05T03:32:14.974Z,0
2017-03-05T03:33:15.323Z,0
2017-03-05T03:34:14.527Z,0
2017-03-05T03:35:14.946Z,0
2017-03-05T03:36:14.943Z,0
2017-03-05T03:37:15.397Z,0
2017-03-05T03:38:15.412Z,0
2017-03-05T03:39:15.418Z,0
2017-03-05T03:40:15.404Z,0
2017-03-05T03:41:15.447Z,0
2017-03-05T03:42:15.460Z,0
2017-03-05T03:43:15.665Z,0
2017-03-05T03:44:15.512Z,0
2017-03-05T03:45:15.518Z,0
2017-03-05T03:46:15.528Z,0
2017-03-05T03:47:15.549Z,0
2017-03-05T03:48:15.561Z,0
2017-03-05T03:49:15.201Z,0
2017-03-05T03:50:15.581Z,0
2017-03-05T03:51:15.612Z,0
2017-03-05T03:52:15.623Z,0
2017-03-05T03:53:15.664Z,0
2017-03-05T03:54:15.643Z,0
2017-03-05T03:55:15.679Z,0
2017-03-05T03:56:15.282Z,0
2017-03-05T03:57:15.723Z,0
2017-03-05T03:58:15.715Z,0
2017-03-05T03:59:15.336Z,0
2017-03-05T04:00:15.359Z,0
2017-03-05T04:01:15.400Z,0
2017-03-05T04:02:15.785Z,0
2017-03-05T04:03:15.009Z,0
2017-03-05T04:04:15.406Z,0
2017-03-05T04:05:15.847Z,0
2017-03-05T04:06:15.853Z,0
2017-03-05T04:07:15.881Z,0
2017-03-05T04:08:15.494Z,0
2017-03-05T04:09:15.922Z,0
2017-03-05T04:10:15.911Z,0
2017-03-05T04:11:15.977Z,0
2017-03-05T04:12:15.575Z,0
2017-03-05T04:13:15.968Z,0
2017-03-05T04:14:15.981Z,0
2017-03-05T04:15:16.015Z,0
2017-03-05T04:16:15.247Z,0
2017-03-05T04:17:16.175Z,0
2017-03-05T04:18:15.651Z,0
2017-03-05T04:19:16.179Z,0
2017-03-05T04:20:15.672Z,0
2017-03-05T04:21:16.219Z,0
2017-03-05T04:22:16.202Z,0
2017-03-05T04:23:16.225Z,0
2017-03-05T04:24:16.235Z,0
2017-03-05T04:25:16.285Z,0
2017-03-05T04:26:16.289Z,0
2017-03-05T04:27:15.799Z,0
2017-03-05T04:28:15.922Z,0
2017-03-05T04:29:16.330Z,0
2017-03-05T04:30:16.315Z,0
2017-03-05T04:31:16.354Z,0
2017-03-05T04:32:16.355Z,0
2017-03-05T04:33:16.354Z,0
2017-03-05T04:34:16.363Z,0
2017-03-05T04:35:16.442Z,0
2017-03-05T04:36:16.387Z,0
2017-03-05T04:37:16.456Z,0
2017-03-05T04:38:16.427Z,0
2017-03-05T04:39:16.504Z,0
2017-03-05T04:40:16.509Z,0
2017-03-05T04:41:16.513Z,0
2017-03-05T04:42:16.520Z,0
2017-03-05T04:43:16.696Z,0
2017-03-05T04:44:16.547Z,0
2017-03-05T04:45:16.177Z,0
2017-03-05T04:46:16.192Z,0
2017-03-05T04:47:16.774Z,0
2017-03-05T04:48:16.728Z,0
2017-03-05T04:49:16.672Z,0
2017-03-05T04:50:16.250Z,0
2017-03-05T04:51:16.270Z,0
2017-03-05T04:52:16.280Z,0
2017-03-05T04:53:16.854Z,0
2017-03-05T04:54:16.304Z,0
2017-03-05T04:55:16.827Z,0
2017-03-05T04:56:16.314Z,0
2017-03-05T04:57:16.840Z,0
2017-03-05T04:58:16.853Z,0
2017-03-05T04:59:16.838Z,0
2017-03-05T05:00:16.333Z,0
2017-03-05T05:01:16.473Z,0
2017-03-05T05:02:16.864Z,0
2017-03-05T05:03:16.981Z,0
2017-03-05T05:04:16.100Z,0
2017-03-05T05:05:16.848Z,0
2017-03-05T05:06:16.858Z,0
2017-03-05T05:07:16.479Z,0
2017-03-05T05:08:16.871Z,0
2017-03-05T05:09:16.889Z,0
2017-03-05T05:10:16.296Z,0
2017-03-05T05:11:16.912Z,0
2017-03-05T05:12:16.522Z,0
2017-03-05T05:13:17.174Z,0
2017-03-05T05:14:22.825Z,0
2017-03-05T05:15:16.974Z,0
2017-03-05T05:16:17.205Z,0
2017-03-05T05:17:17.196Z,0
2017-03-05T05:18:17.205Z,0
2017-03-05T05:19:17.223Z,0
2017-03-05T05:20:16.752Z,0
2017-03-05T05:21:16.774Z,0
2017-03-05T05:22:17.259Z,0
2017-03-05T05:23:17.119Z,0
2017-03-05T05:24:17.130Z,0
2017-03-05T05:25:17.142Z,0
2017-03-05T05:26:17.139Z,0
2017-03-05T05:27:17.196Z,0
2017-03-05T05:28:17.200Z,0
2017-03-05T05:29:17.248Z,0
2017-03-05T05:30:17.204Z,0
2017-03-05T05:31:17.255Z,0
2017-03-05T05:32:17.248Z,0
2017-03-05T05:33:17.259Z,0
2017-03-05T05:34:17.277Z,0
2017-03-05T05:35:17.301Z,0
2017-03-05T05:36:16.640Z,0
2017-03-05T05:37:16.924Z,0
2017-03-05T05:38:17.379Z,0
2017-03-05T05:39:17.363Z,0
2017-03-05T05:40:16.993Z,0
2017-03-05T05:41:17.412Z,0
2017-03-05T05:42:17.002Z,0
2017-03-05T05:43:17.521Z,0
2017-03-05T05:44:17.436Z,0
2017-03-05T05:45:17.513Z,0
2017-03-05T05:46:17.578Z,0
2017-03-05T05:47:17.485Z,0
2017-03-05T05:48:17.510Z,0
2017-03-05T05:49:17.611Z,0
2017-03-05T05:50:17.516Z,0
2017-03-05T05:51:17.165Z,0
2017-03-05T05:52:17.583Z,0
2017-03-05T05:53:17.986Z,0
2017-03-05T05:54:17.188Z,0
2017-03-05T05:55:17.628Z,0
2017-03-05T05:56:17.624Z,0
2017-03-05T05:57:17.755Z,0
2017-03-05T05:58:17.659Z,0
2017-03-05T05:59:17.717Z,0
2017-03-05T06:00:17.800Z,0
2017-03-05T06:01:17.822Z,0
2017-03-05T06:02:17.312Z,0
2017-03-05T06:03:17.089Z,0
2017-03-05T06:04:17.741Z,0
2017-03-05T06:05:17.902Z,0
2017-03-05T06:06:17.801Z,0
2017-03-05T06:07:17.824Z,0
2017-03-05T06:08:17.812Z,0
2017-03-05T06:09:18.002Z,0
2017-03-05T06:10:17.510Z,0
2017-03-05T06:11:17.880Z,0
2017-03-05T06:12:17.952Z,0
2017-03-05T06:13:18.025Z,0
2017-03-05T06:14:17.933Z,0
2017-03-05T06:15:18.154Z,0
2017-03-05T06:16:17.935Z,0
2017-03-05T06:17:17.681Z,0
2017-03-05T06:18:18.055Z,0
2017-03-05T06:19:18.107Z,0
2017-03-05T06:20:18.150Z,0
2017-03-05T06:21:18.177Z,0
2017-03-05T06:22:18.047Z,0
2017-03-05T06:23:17.854Z,0
2017-03-05T06:24:18.068Z,0
2017-03-05T06:25:18.115Z,0
2017-03-05T06:26:17.696Z,0
2017-03-05T06:27:18.156Z,0
2017-03-05T06:28:18.161Z,0
2017-03-05T06:29:18.152Z,0
2017-03-05T06:30:18.177Z,0
2017-03-05T06:31:18.322Z,0
2017-03-05T06:32:17.815Z,0
2017-03-05T06:33:18.249Z,0
2017-03-05T06:34:18.347Z,0
2017-03-05T06:35:18.278Z,0
2017-03-05T06:36:18.285Z,0
2017-03-05T06:37:18.328Z,0
2017-03-05T06:38:18.300Z,0
2017-03-05T06:39:18.340Z,0
2017-03-05T06:40:18.332Z,0
2017-03-05T06:41:18.358Z,0
2017-03-05T06:42:17.979Z,0
2017-03-05T06:43:18.393Z,0
2017-03-05T06:44:19.085Z,0
2017-03-05T06:45:18.680Z,0
2017-03-05T06:46:18.422Z,0
2017-03-05T06:47:18.612Z,0
2017-03-05T06:48:18.656Z,0
2017-03-05T06:49:18.686Z,0
2017-03-05T06:50:18.482Z,0
2017-03-05T06:51:18.314Z,0
2017-03-05T06:52:18.589Z,0
2017-03-05T06:53:18.641Z,0
2017-03-05T06:54:18.656Z,0
2017-03-05T06:55:18.289Z,0
2017-03-05T06:56:18.184Z,0
2017-03-05T06:57:18.612Z,0
2017-03-05T06:58:18.629Z,0
2017-03-05T06:59:18.642Z,0
2017-03-05T07:00:18.531Z,0
2017-03-05T07:01:18.704Z,0
2017-03-05T07:02:18.689Z,0
2017-03-05T07:03:18.736Z,0
2017-03-05T07:04:18.728Z,0
2017-03-05T07:05:18.336Z,0
2017-03-05T07:06:18.760Z,0
2017-03-05T07:07:18.385Z,0
2017-03-05T07:08:18.375Z,0
2017-03-05T07:09:18.430Z,0
2017-03-05T07:10:18.411Z,0
2017-03-05T07:11:18.445Z,0
2017-03-05T07:12:18.626Z,0
2017-03-05T07:13:18.877Z,0
2017-03-05T07:14:18.078Z,0
2017-03-05T07:15:18.979Z,0
2017-03-05T07:16:18.582Z,0
2017-03-05T07:17:18.938Z,0
2017-03-05T07:18:18.555Z,0
2017-03-05T07:19:18.975Z,5
2017-03-05T07:20:18.583Z,5
2017-03-05T07:21:18.697Z,0
2017-03-05T07:22:19.001Z,0
2017-03-05T07:23:18.664Z,0
2017-03-05T07:24:18.242Z,0
2017-03-05T07:25:19.083Z,0
2017-03-05T07:26:18.787Z,0
2017-03-05T07:27:18.685Z,0
2017-03-05T07:28:19.222Z,0
2017-03-05T07:29:19.165Z,0
2017-03-05T07:30:18.775Z,0
2017-03-05T07:31:18.771Z,0
2017-03-05T07:32:19.203Z,0
2017-03-05T07:33:18.929Z,5
2017-03-05T07:34:18.915Z,5
2017-03-05T07:35:19.234Z,5
2017-03-05T07:36:18.905Z,5
2017-03-05T07:37:19.276Z,5
2017-03-05T07:38:19.268Z,5
2017-03-05T07:39:19.285Z,5
2017-03-05T07:40:19.313Z,5
2017-03-05T07:41:19.428Z,5
2017-03-05T07:42:18.926Z,5
2017-03-05T07:43:18.600Z,5
2017-03-05T07:44:18.953Z,5
2017-03-05T07:45:19.511Z,5
2017-03-05T07:46:19.499Z,5
2017-03-05T07:47:19.122Z,10
2017-03-05T07:48:19.042Z,10
2017-03-05T07:49:19.457Z,10
2017-03-05T07:50:19.466Z,10
2017-03-05T07:51:19.498Z,10
2017-03-05T07:52:19.596Z,10
2017-03-05T07:53:19.528Z,10
2017-03-05T07:54:19.573Z,10
2017-03-05T07:55:19.173Z,10
2017-03-05T07:56:19.569Z,10
2017-03-05T07:57:19.595Z,10
2017-03-05T07:58:19.220Z,5
2017-03-05T07:59:19.641Z,5
2017-03-05T08:00:19.607Z,5
2017-03-05T08:01:19.671Z,5
2017-03-05T08:02:19.449Z,5
2017-03-05T08:03:19.473Z,10
2017-03-05T08:04:19.692Z,10
2017-03-05T08:05:19.809Z,10
2017-03-05T08:06:19.380Z,5
2017-03-05T08:07:19.917Z,5
2017-03-05T08:08:19.927Z,10
2017-03-05T08:09:19.807Z,10
2017-03-05T08:10:19.796Z,10
2017-03-05T08:11:19.832Z,15
2017-03-05T08:12:19.827Z,15
2017-03-05T08:13:19.833Z,15
2017-03-05T08:14:19.458Z,15
2017-03-05T08:15:19.102Z,15
2017-03-05T08:16:19.869Z,15
2017-03-05T08:17:19.894Z,15
2017-03-05T08:18:19.907Z,15
2017-03-05T08:19:19.961Z,15
2017-03-05T08:20:19.961Z,15
2017-03-05T08:21:19.984Z,15
2017-03-05T08:22:20.202Z,15
2017-03-05T08:23:20.214Z,15
2017-03-05T08:24:21.259Z,15
2017-03-05T08:25:20.126Z,15
2017-03-05T08:26:20.225Z,15
2017-03-05T08:27:20.253Z,15
2017-03-05T08:28:19.825Z,15
2017-03-05T08:29:23.229Z,15
2017-03-05T08:30:19.351Z,10
2017-03-05T08:31:19.870Z,10
2017-03-05T08:32:20.149Z,15
2017-03-05T08:33:20.181Z,10
2017-03-05T08:34:20.150Z,15
2017-03-05T08:35:20.188Z,15
2017-03-05T08:36:20.197Z,15
2017-03-05T08:37:20.232Z,15
2017-03-05T08:38:20.260Z,15
2017-03-05T08:39:20.472Z,15
2017-03-05T08:40:19.874Z,15
2017-03-05T08:41:20.324Z,15
2017-03-05T08:42:20.305Z,10
2017-03-05T08:43:19.935Z,10
2017-03-05T08:44:20.330Z,10
2017-03-05T08:45:20.349Z,10
2017-03-05T08:46:20.356Z,10
2017-03-05T08:47:19.979Z,10
2017-03-05T08:48:20.385Z,10
2017-03-05T08:49:20.424Z,15
2017-03-05T08:50:20.434Z,15
2017-03-05T08:51:20.062Z,15
2017-03-05T08:52:20.456Z,15
2017-03-05T08:53:20.086Z,15
2017-03-05T08:54:20.510Z,15
2017-03-05T08:55:20.544Z,15
2017-03-05T08:56:20.534Z,15
2017-03-05T08:57:20.168Z,15
2017-03-05T08:58:20.571Z,15
2017-03-05T08:59:20.197Z,15
2017-03-05T09:00:20.209Z,15
2017-03-05T09:01:20.630Z,15
2017-03-05T09:02:20.243Z,15
2017-03-05T09:03:20.261Z,15
2017-03-05T09:04:20.252Z,15
2017-03-05T09:05:20.697Z,15
2017-03-05T09:06:20.303Z,15
2017-03-05T09:07:20.697Z,15
2017-03-05T09:08:20.921Z,15
2017-03-05T09:09:20.377Z,15
2017-03-05T09:10:20.939Z,15
2017-03-05T09:11:20.852Z,15
2017-03-05T09:12:20.946Z,15
2017-03-05T09:13:20.428Z,15
2017-03-05T09:14:20.827Z,15
2017-03-05T09:15:20.072Z,15
2017-03-05T09:16:20.465Z,15
2017-03-05T09:17:20.895Z,15
2017-03-05T09:18:20.507Z,15
2017-03-05T09:19:20.959Z,15
2017-03-05T09:20:20.937Z,15
2017-03-05T09:21:20.994Z,15
2017-03-05T09:22:20.961Z,15
2017-03-05T09:23:21.068Z,15
2017-03-05T09:24:20.998Z,15
2017-03-05T09:25:20.652Z,15
2017-03-05T09:26:21.056Z,15
2017-03-05T09:27:21.050Z,15
2017-03-05T09:28:21.056Z,15
2017-03-05T09:29:21.083Z,15
2017-03-05T09:30:21.150Z,15
2017-03-05T09:31:21.122Z,15
2017-03-05T09:32:21.126Z,15
2017-03-05T09:33:21.178Z,15
2017-03-05T09:34:21.157Z,15
2017-03-05T09:35:21.202Z,15
2017-03-05T09:36:20.794Z,15
2017-03-05T09:37:21.253Z,15
2017-03-05T09:38:20.834Z,15
2017-03-05T09:39:21.245Z,15
2017-03-05T09:40:21.252Z,15
2017-03-05T09:41:21.558Z,15
2017-03-05T09:42:21.031Z,15
2017-03-05T09:43:21.022Z,15
2017-03-05T09:44:21.349Z,15
2017-03-05T09:45:21.065Z,20
2017-03-05T09:46:21.460Z,20
2017-03-05T09:47:21.597Z,20
2017-03-05T09:48:21.297Z,20
2017-03-05T09:49:21.610Z,20
2017-03-05T09:50:21.618Z,20
2017-03-05T09:51:21.527Z,20
2017-03-05T09:52:21.541Z,20
2017-03-05T09:53:21.591Z,20
2017-03-05T09:54:21.611Z,20
2017-03-05T09:55:21.325Z,30
2017-03-05T09:56:21.334Z,30
2017-03-05T09:57:21.341Z,20
2017-03-05T09:58:21.350Z,30
2017-03-05T09:59:21.274Z,25
2017-03-05T10:00:21.282Z,30
2017-03-05T10:01:21.300Z,25
2017-03-05T10:02:21.678Z,30
2017-03-05T10:03:21.659Z,35
2017-03-05T10:04:21.663Z,35
2017-03-05T10:05:21.680Z,30
2017-03-05T10:06:21.690Z,30
2017-03-05T10:07:21.333Z,35
2017-03-05T10:08:21.333Z,25
2017-03-05T10:09:21.764Z,20
2017-03-05T10:10:21.763Z,30
2017-03-05T10:11:21.792Z,25
2017-03-05T10:12:21.399Z,30
2017-03-05T10:13:21.481Z,30
2017-03-05T10:14:21.113Z,30
2017-03-05T10:15:21.466Z,35
2017-03-05T10:16:21.477Z,30
2017-03-05T10:17:21.870Z,30
2017-03-05T10:18:21.518Z,30
2017-03-05T10:19:21.920Z,20
2017-03-05T10:20:21.528Z,20
2017-03-05T10:21:21.565Z,20
2017-03-05T10:22:21.168Z,20
2017-03-05T10:23:21.594Z,15
2017-03-05T10:24:21.998Z,20
2017-03-05T10:25:22.028Z,15
2017-03-05T10:26:22.029Z,20
2017-03-05T10:27:22.050Z,20
2017-03-05T10:28:21.676Z,20
2017-03-05T10:29:21.724Z,25
2017-03-05T10:30:22.127Z,25
2017-03-05T10:31:22.141Z,25
2017-03-05T10:32:22.166Z,30
2017-03-05T10:33:21.441Z,30
2017-03-05T10:34:22.192Z,25
2017-03-05T10:35:22.204Z,20
2017-03-05T10:36:22.217Z,20
2017-03-05T10:37:22.241Z,20
2017-03-05T10:38:22.264Z,20
2017-03-05T10:39:22.272Z,25
2017-03-05T10:40:21.486Z,30
2017-03-05T10:41:22.291Z,30
2017-03-05T10:42:22.312Z,30
2017-03-05T10:43:21.952Z,30
2017-03-05T10:44:22.363Z,30
2017-03-05T10:45:22.395Z,25
2017-03-05T10:46:22.404Z,15
2017-03-05T10:47:22.435Z,10
2017-03-05T10:48:22.429Z,10
2017-03-05T10:49:22.487Z,15
2017-03-05T10:50:22.465Z,20
2017-03-05T10:51:22.499Z,25
2017-03-05T10:52:22.502Z,35
2017-03-05T10:53:22.536Z,35
2017-03-05T10:54:22.151Z,30
2017-03-05T10:55:22.559Z,25
2017-03-05T10:56:22.180Z,20
2017-03-05T10:57:22.589Z,15
2017-03-05T10:58:22.607Z,15
2017-03-05T10:59:22.671Z,10
2017-03-05T11:00:22.655Z,15
2017-03-05T11:01:22.699Z,20
2017-03-05T11:02:22.679Z,30
2017-03-05T11:03:22.723Z,30
2017-03-05T11:04:22.720Z,25
2017-03-05T11:05:22.727Z,15
2017-03-05T11:06:21.549Z,15
2017-03-05T11:07:22.780Z,20
2017-03-05T11:08:22.782Z,30
2017-03-05T11:09:22.811Z,30
2017-03-05T11:10:22.810Z,35
2017-03-05T11:11:22.864Z,35
2017-03-05T11:12:22.070Z,30
2017-03-05T11:13:22.910Z,30
2017-03-05T11:14:22.513Z,30
2017-03-05T11:15:22.920Z,35
2017-03-05T11:16:22.923Z,40
2017-03-05T11:17:23.105Z,50
2017-03-05T11:18:22.964Z,50
2017-03-05T11:19:23.115Z,50
2017-03-05T11:20:22.608Z,50
2017-03-05T11:21:23.130Z,45
2017-03-05T11:22:23.163Z,50
2017-03-05T11:23:22.248Z,45
2017-03-05T11:24:23.172Z,45
2017-03-05T11:25:23.178Z,40
2017-03-05T11:26:23.188Z,35
2017-03-05T11:27:22.744Z,25
2017-03-05T11:28:23.255Z,25
2017-03-05T11:29:23.264Z,20
2017-03-05T11:30:23.272Z,20
2017-03-05T11:31:22.445Z,25
2017-03-05T11:32:23.291Z,30
2017-03-05T11:33:23.290Z,35
2017-03-05T11:34:23.298Z,35
2017-03-05T11:35:23.307Z,35
2017-03-05T11:36:22.509Z,35
2017-03-05T11:37:23.384Z,35
2017-03-05T11:38:23.392Z,35
2017-03-05T11:39:23.469Z,30
2017-03-05T11:40:23.458Z,30
2017-03-05T11:41:23.227Z,30
2017-03-05T11:42:23.622Z,25
2017-03-05T11:43:23.634Z,25
2017-03-05T11:44:23.646Z,25
2017-03-05T11:45:23.112Z,20
2017-03-05T11:46:23.266Z,15
2017-03-05T11:47:23.661Z,15
2017-03-05T11:48:23.274Z,15
2017-03-05T11:49:23.281Z,15
2017-03-05T11:50:23.685Z,15
2017-03-05T11:51:23.293Z,10
2017-03-05T11:52:23.423Z,15
2017-03-05T11:53:23.829Z,15
2017-03-05T11:54:23.346Z,15
2017-03-05T11:55:23.749Z,15
2017-03-05T11:56:23.750Z,15
2017-03-05T11:57:23.759Z,20
2017-03-05T11:58:23.772Z,25
2017-03-05T11:59:23.815Z,30
2017-03-05T12:00:23.826Z,35
2017-03-05T12:01:23.434Z,40
2017-03-05T12:02:23.438Z,35
2017-03-05T12:03:23.875Z,30
2017-03-05T12:04:23.874Z,30
2017-03-05T12:05:23.898Z,25
2017-03-05T12:06:23.501Z,20
2017-03-05T12:07:23.891Z,20
2017-03-05T12:08:23.625Z,15
2017-03-05T12:09:23.936Z,10
2017-03-05T12:10:23.926Z,10
2017-03-05T12:11:23.971Z,10
2017-03-05T12:12:23.965Z,20
2017-03-05T12:13:23.403Z,25
2017-03-05T12:14:24.027Z,25
2017-03-05T12:15:24.014Z,25
2017-03-05T12:16:23.713Z,20
2017-03-05T12:17:24.078Z,15
2017-03-05T12:18:24.064Z,15
2017-03-05T12:19:24.125Z,20
2017-03-05T12:20:23.791Z,20
2017-03-05T12:21:24.145Z,10
2017-03-05T12:22:24.156Z,10
2017-03-05T12:23:23.832Z,10
2017-03-05T12:24:24.183Z,10
2017-03-05T12:25:23.845Z,15
2017-03-05T12:26:24.227Z,10
2017-03-05T12:27:24.257Z,10
2017-03-05T12:28:23.854Z,10
2017-03-05T12:29:24.299Z,5
2017-03-05T12:30:24.295Z,5
2017-03-05T12:31:24.326Z,10
2017-03-05T12:32:24.334Z,15
2017-03-05T12:33:23.957Z,15
2017-03-05T12:34:24.370Z,20
2017-03-05T12:35:24.396Z,20
2017-03-05T12:36:24.448Z,25
2017-03-05T12:37:24.640Z,25
2017-03-05T12:38:24.456Z,35
2017-03-05T12:39:24.464Z,35
2017-03-05T12:40:24.493Z,35
2017-03-05T12:41:24.501Z,35
2017-03-05T12:42:24.599Z,35
2017-03-05T12:43:24.528Z,35
2017-03-05T12:44:24.583Z,30
2017-03-05T12:45:24.601Z,30
2017-03-05T12:46:24.607Z,30
2017-03-05T12:47:24.637Z,35
2017-03-05T12:48:24.629Z,30
2017-03-05T12:49:24.676Z,25
2017-03-05T12:50:24.267Z,20
2017-03-05T12:51:24.689Z,20
2017-03-05T12:52:24.963Z,15
2017-03-05T12:53:23.932Z,15
2017-03-05T12:54:24.782Z,15
2017-03-05T12:55:24.770Z,10
2017-03-05T12:56:24.387Z,10
2017-03-05T12:57:24.808Z,5
2017-03-05T12:58:24.841Z,5
2017-03-05T12:59:24.842Z,5
2017-03-05T13:00:24.860Z,5
2017-03-05T13:01:24.876Z,10
2017-03-05T13:02:24.529Z,10
2017-03-05T13:03:24.523Z,10
2017-03-05T13:04:24.135Z,15
2017-03-05T13:05:24.563Z,15
2017-03-05T13:06:24.963Z,15
2017-03-05T13:07:25.022Z,15
2017-03-05T13:08:24.223Z,20
2017-03-05T13:09:25.026Z,20
2017-03-05T13:10:25.047Z,20
2017-03-05T13:11:25.063Z,20
2017-03-05T13:12:25.102Z,20
2017-03-05T13:13:25.125Z,25
2017-03-05T13:14:25.127Z,25
2017-03-05T13:15:25.142Z,25
2017-03-05T13:16:25.163Z,30
2017-03-05T13:17:25.194Z,30
2017-03-05T13:18:24.845Z,30
2017-03-05T13:19:24.472Z,25
2017-03-05T13:20:25.262Z,25
2017-03-05T13:21:24.882Z,25
2017-03-05T13:22:25.269Z,20
2017-03-05T13:23:25.316Z,20
2017-03-05T13:24:25.318Z,20
2017-03-05T13:25:25.353Z,20
2017-03-05T13:26:25.365Z,25
2017-03-05T13:27:25.378Z,30
2017-03-05T13:28:25.404Z,25
2017-03-05T13:29:25.403Z,25
2017-03-05T13:30:25.432Z,25
2017-03-05T13:31:24.672Z,25
2017-03-05T13:32:25.472Z,25
2017-03-05T13:33:25.493Z,25
2017-03-05T13:34:25.512Z,30
2017-03-05T13:35:25.518Z,30
2017-03-05T13:36:25.547Z,30
2017-03-05T13:37:25.558Z,30
2017-03-05T13:38:25.572Z,25
2017-03-05T13:39:25.637Z,25
2017-03-05T13:40:25.625Z,25
2017-03-05T13:41:25.645Z,25
2017-03-05T13:42:25.673Z,20
2017-03-05T13:43:25.688Z,20
2017-03-05T13:44:25.711Z,25
2017-03-05T13:45:25.702Z,15
2017-03-05T13:46:25.732Z,15
2017-03-05T13:47:25.742Z,20
2017-03-05T13:48:25.774Z,20
2017-03-05T13:49:25.780Z,30
2017-03-05T13:50:25.838Z,30
2017-03-05T13:51:25.425Z,30
2017-03-05T13:52:25.863Z,30
2017-03-05T13:53:25.888Z,30
2017-03-05T13:54:25.886Z,30
2017-03-05T13:55:25.508Z,35
2017-03-05T13:56:25.942Z,30
2017-03-05T13:57:26.006Z,20
2017-03-05T13:58:25.971Z,15
2017-03-05T13:59:26.001Z,10
2017-03-05T14:00:26.015Z,10
2017-03-05T14:01:26.021Z,10
2017-03-05T14:02:26.054Z,15
2017-03-05T14:03:26.063Z,15
2017-03-05T14:04:26.080Z,20
2017-03-05T14:05:25.302Z,20
2017-03-05T14:06:26.127Z,20
2017-03-05T14:07:25.765Z,25
2017-03-05T14:08:25.762Z,25
2017-03-05T14:09:25.982Z,25
2017-03-05T14:10:26.208Z,25
2017-03-05T14:11:25.905Z,15
2017-03-05T14:12:26.254Z,15
2017-03-05T14:13:25.872Z,15
2017-03-05T14:14:25.890Z,15
2017-03-05T14:15:26.298Z,15
2017-03-05T14:16:26.327Z,10
2017-03-05T14:17:25.957Z,10
2017-03-05T14:18:25.966Z,10
2017-03-05T14:19:25.981Z,10
2017-03-05T14:20:25.994Z,10
2017-03-05T14:21:26.416Z,10
2017-03-05T14:22:26.030Z,10
2017-03-05T14:23:26.037Z,10
2017-03-05T14:24:26.063Z,10
2017-03-05T14:25:26.089Z,10
2017-03-05T14:26:26.608Z,10
2017-03-05T14:27:26.297Z,10
2017-03-05T14:28:26.682Z,10
2017-03-05T14:29:26.578Z,10
2017-03-05T14:30:26.188Z,10
2017-03-05T14:31:26.213Z,10
2017-03-05T14:32:26.232Z,10